Featured Flight

MET332 - Boston to Los Angeles

Airbus A321-232
657MT - Sharklet Equipped
5 hrs 40 mins
2267 nm
Scheduled - Daily

Bid/PiRep Status

Bid was submitted on Jan 10 2017.

No PiRep on file for this bid.

Departure

Departing from
Boston (BOS)
Departure gate
Scheduled Departure
GMT 1100
Local 0700
METAR KBOS 252306Z 04016G23KT 5SM -RA BR BKN007 OVC011 08/08 A3015 RMK AO2 P0000 T00830078
TAF KBOS 252001Z 2520/2624 05015G23KT 2SM SHRA BR BKN006 OVC012 FM252200 07014G22KT 3SM -SHRA BR OVC006 FM260000 07014KT 2SM SHRA BR OVC005 FM260800 08010KT 1 1/2SM -SHRA BR OVC003 WS020/14035KT FM261400 08009KT 2SM -SHRA BR OVC003 FM261800 11007KT 3SM BR VCS

Route Map

Planning Resources

MHT CAM TULEG SIBKI PENDO VIXIS JAKEY JUVAG CESNA Q505 HEMDI DPR J32 BOY J713 TCH ILC HEC
GLYDE BAF J77 SAX J60 ETX RAV J64 MAINE J64 LMN J64 HEC ZIGGY4
MHT SYR J547 BUF J94 ECK J16 MCW J148 ONL J114 DVV HBU J128 TBC J64 HEC ZIGGY4
GLYDE BAF J77 SAX J80 ETX J60 DJB J60 IOW LNK J60 BCE J60 HEC ZIGGY4
LOGAN4 CTR HEC ZIGGY4
Route:
OFP Layout:
Units:
Detailed Navlog:
ETOPS Planning:
Plan Stepclimbs:
Runway Analysis:
Include NOTAMS:
FIR NOTAMS:
Flight Maps:

Return Flights

MET331
Airbus A321-232
1730 GMT
MET335
Airbus A321-232
0530 GMT
MET338
Airbus A321-232
1450 GMT
MET603
Boeing 787-8
1500 GMT

Popularity

Hub Current Bids PiReps this month Total PiReps
KMCI 0 0 1
KLAX 0 0 0
KBOS 0 0 0